Time;durP1;ratioP1;P1;durP2;ratioP2;P2;SDS_P1;SDS_P2;PMS_P1;PMS_P2;Temp;Humidity;BMP_temperature;BMP_pressure;BME280_temperature;BME280_humidity;BME280_pressure;Samples;Min_cycle;Max_cycle;Signal;HPM_P1;HPM_P2
2021/12/21 00:00:38;;;;;;;23.05;16.25;;;-1.90;99.90;;;;;;4948472;28;20122;-64
2021/12/21 00:03:04;;;;;;;24.02;15.48;;;-1.90;99.90;;;;;;4949690;28;20118;-64
2021/12/21 00:05:31;;;;;;;17.48;13.23;;;-1.90;99.90;;;;;;4933387;28;20057;-64
2021/12/21 00:07:59;;;;;;;23.00;14.18;;;-1.90;99.90;;;;;;4949784;28;20055;-65
2021/12/21 00:10:29;;;;;;;23.50;15.25;;;-2.00;99.90;;;;;;4948466;28;20502;-65
2021/12/21 00:18:45;;;;;;;30.33;16.73;;;-2.00;99.90;;;;;;4938771;28;20052;-65
2021/12/21 00:23:42;;;;;;;35.22;21.52;;;-2.10;99.90;;;;;;4949859;28;20047;-65
2021/12/21 00:26:11;;;;;;;35.53;22.05;;;-2.10;99.90;;;;;;4933258;29;20039;-65
2021/12/21 00:28:56;;;;;;;38.40;22.27;;;-2.10;99.90;;;;;;4933691;29;20130;-65
2021/12/21 00:31:24;;;;;;;34.17;21.67;;;-2.10;99.90;;;;;;4947129;28;20110;-64
2021/12/21 00:33:50;;;;;;;32.72;21.38;;;-2.20;99.90;;;;;;4949368;28;20053;-65
2021/12/21 00:36:19;;;;;;;34.53;21.55;;;-2.20;99.90;;;;;;4933029;29;20091;-65
2021/12/21 00:38:46;;;;;;;33.00;21.15;;;-2.20;99.90;;;;;;4949507;28;20467;-58
2021/12/21 00:41:13;;;;;;;33.55;20.83;;;-2.20;99.90;;;;;;4948558;28;20557;-59
2021/12/21 00:43:40;;;;;;;27.33;19.50;;;-2.20;99.90;;;;;;4964764;28;20130;-64
2021/12/21 00:46:06;;;;;;;30.92;21.88;;;-2.20;99.90;;;;;;4949151;28;20043;-64
2021/12/21 00:48:34;;;;;;;34.47;21.33;;;-2.30;99.90;;;;;;4949035;28;20129;-65
2021/12/21 00:51:03;;;;;;;41.78;24.83;;;-2.30;99.90;;;;;;4933817;29;20049;-65
2021/12/21 00:53:30;;;;;;;41.20;25.13;;;-2.30;99.90;;;;;;4933988;29;20055;-64
2021/12/21 00:55:56;;;;;;;44.03;26.27;;;-2.30;99.90;;;;;;4948822;28;20047;-65
2021/12/21 00:58:22;;;;;;;39.65;26.00;;;-2.30;99.90;;;;;;4950646;28;20454;-65
2021/12/21 01:00:49;;;;;;;39.28;25.20;;;-2.30;99.90;;;;;;4933374;29;20043;-65
2021/12/21 01:03:17;;;;;;;38.53;27.50;;;-2.30;99.90;;;;;;4947012;28;20059;-65
2021/12/21 01:08:13;;;;;;;41.15;27.10;;;-2.30;99.90;;;;;;4950132;28;20058;-65
2021/12/21 01:13:24;;;;;;;38.22;24.13;;;-2.30;99.90;;;;;;4950343;28;20491;-65
2021/12/21 01:16:07;;;;;;;33.97;24.73;;;-2.40;99.90;;;;;;4934230;28;20063;-65
2021/12/21 01:18:39;;;;;;;33.10;22.30;;;-2.30;99.90;;;;;;4947471;28;20399;-65
2021/12/21 01:21:18;;;;;;;30.60;20.52;;;-2.40;99.90;;;;;;4949328;28;20488;-66
2021/12/21 01:26:30;;;;;;;32.38;20.98;;;-2.40;99.90;;;;;;4949304;28;20047;-65
2021/12/21 01:29:08;;;;;;;27.30;17.17;;;-2.40;99.90;;;;;;4946884;29;20506;-66
2021/12/21 01:34:27;;;;;;;28.15;19.60;;;-2.60;99.90;;;;;;4947006;29;20062;-65
2021/12/21 01:50:40;;;;;;;27.83;18.20;;;-2.50;99.90;;;;;;4940046;29;20081;-59
2021/12/21 01:53:07;;;;;;;24.60;17.42;;;-2.50;99.90;;;;;;4918218;29;20627;-58
2021/12/21 01:55:33;;;;;;;29.30;16.55;;;-2.50;99.90;;;;;;4950803;28;20517;-58
2021/12/21 01:57:59;;;;;;;25.17;15.68;;;-2.50;99.90;;;;;;4949196;29;20118;-58
2021/12/21 02:00:27;;;;;;;23.95;15.75;;;-2.50;99.90;;;;;;4949134;29;20055;-58
2021/12/21 02:02:53;;;;;;;27.83;17.15;;;-2.50;99.90;;;;;;4950258;28;20557;-58
2021/12/21 02:05:19;;;;;;;26.15;16.60;;;-2.60;99.90;;;;;;4931647;29;20051;-59
2021/12/21 02:07:45;;;;;;;23.85;15.73;;;-2.60;99.90;;;;;;4916054;29;20418;-58
2021/12/21 02:10:11;;;;;;;23.38;16.65;;;-2.70;99.90;;;;;;4948010;28;20079;-58
2021/12/21 02:12:37;;;;;;;27.70;17.20;;;-2.70;99.90;;;;;;4931859;29;20047;-58
2021/12/21 02:15:04;;;;;;;25.88;18.17;;;-2.70;99.90;;;;;;4948352;29;20066;-59
2021/12/21 02:22:42;;;;;;;27.17;16.65;;;-2.70;99.90;;;;;;4949700;29;20047;-58
2021/12/21 02:30:30;;;;;;;26.65;16.40;;;-2.70;99.90;;;;;;4947214;28;20071;-59
2021/12/21 02:32:56;;;;;;;25.70;16.58;;;-2.70;99.90;;;;;;4947011;29;20066;-58
2021/12/21 02:35:22;;;;;;;28.05;17.77;;;-2.70;99.90;;;;;;4949320;28;20139;-58
2021/12/21 02:37:48;;;;;;;24.25;17.85;;;-2.70;99.90;;;;;;4949102;28;20155;-58
2021/12/21 02:40:14;;;;;;;24.92;17.27;;;-2.70;99.90;;;;;;4934775;29;20059;-59
2021/12/21 02:42:40;;;;;;;29.63;17.15;;;-2.70;99.90;;;;;;4935472;29;20130;-59
2021/12/21 02:45:07;;;;;;;25.08;16.85;;;-2.70;99.90;;;;;;4935745;29;20055;-58
2021/12/21 02:47:33;;;;;;;22.83;15.68;;;-2.70;99.90;;;;;;4952398;28;20090;-58
2021/12/21 02:49:59;;;;;;;23.00;15.77;;;-2.70;99.90;;;;;;4952816;28;20047;-58
2021/12/21 02:52:25;;;;;;;25.10;17.23;;;-2.80;99.90;;;;;;4934403;29;20322;-59
2021/12/21 02:54:51;;;;;;;24.38;15.60;;;-2.80;99.90;;;;;;4952853;28;20062;-66
2021/12/21 02:57:17;;;;;;;26.65;16.48;;;-2.80;99.90;;;;;;4953561;28;20137;-66
2021/12/21 02:59:44;;;;;;;25.40;17.00;;;-2.80;99.90;;;;;;4950332;29;20047;-66
2021/12/21 03:02:10;;;;;;;26.70;16.25;;;-2.80;99.90;;;;;;4952166;28;20078;-66
2021/12/21 03:04:36;;;;;;;23.95;15.48;;;-2.80;99.90;;;;;;4951358;29;20062;-67
2021/12/21 03:09:40;;;;;;;24.75;14.02;;;-2.80;99.90;;;;;;4951668;28;20051;-58
2021/12/21 03:13:53;;;;;;;20.35;13.02;;;-2.80;99.90;;;;;;4952875;28;20505;-59
2021/12/21 03:15:05;;;;;;;17.35;11.70;;;-2.80;99.90;;;;;;4952817;28;20154;-58
2021/12/21 03:17:31;;;;;;;15.77;10.68;;;-2.80;99.90;;;;;;4935041;29;20114;-58
2021/12/21 03:19:57;;;;;;;21.33;12.55;;;-2.90;99.90;;;;;;4950853;28;20482;-58
2021/12/21 03:22:23;;;;;;;18.70;11.55;;;-2.90;99.90;;;;;;4952203;28;20117;-59
2021/12/21 03:24:49;;;;;;;19.05;11.85;;;-2.90;99.90;;;;;;4951134;28;20402;-59
2021/12/21 03:27:15;;;;;;;17.90;11.52;;;-2.90;99.90;;;;;;4950985;29;20051;-59
2021/12/21 03:29:41;;;;;;;23.73;12.40;;;-2.90;99.90;;;;;;4951547;28;20071;-59
2021/12/21 03:32:08;;;;;;;20.38;13.02;;;-2.90;99.90;;;;;;4934824;29;20051;-58
2021/12/21 03:34:34;;;;;;;21.20;13.18;;;-2.90;99.90;;;;;;4934708;29;20102;-59
2021/12/21 03:37:00;;;;;;;20.85;12.43;;;-2.90;99.90;;;;;;4935376;29;20446;-59
2021/12/21 03:39:27;;;;;;;18.75;13.20;;;-2.90;99.90;;;;;;4949405;29;20114;-59
2021/12/21 03:41:56;;;;;;;18.35;12.48;;;-2.90;99.90;;;;;;4949160;28;20047;-58
2021/12/21 03:44:24;;;;;;;23.30;14.50;;;-3.00;99.90;;;;;;4933210;29;20047;-58
2021/12/21 03:46:53;;;;;;;25.67;13.07;;;-2.90;99.90;;;;;;4950326;29;20054;-60
2021/12/21 03:52:00;;;;;;;20.90;13.65;;;-2.90;99.90;;;;;;4950481;29;20495;-67
2021/12/21 03:54:26;;;;;;;19.02;12.35;;;-2.90;99.90;;;;;;4951635;28;20047;-59
2021/12/21 03:56:52;;;;;;;18.13;13.70;;;-3.00;99.90;;;;;;4934262;29;20058;-59
2021/12/21 03:59:20;;;;;;;21.08;13.13;;;-3.00;99.90;;;;;;4949740;29;20047;-67
2021/12/21 04:01:47;;;;;;;19.92;12.40;;;-3.00;99.90;;;;;;4949539;28;20065;-67
2021/12/21 04:04:13;;;;;;;22.10;13.00;;;-3.00;99.90;;;;;;4950138;29;20137;-67
2021/12/21 04:06:39;;;;;;;19.20;12.65;;;-3.00;99.90;;;;;;4951432;28;20039;-68
2021/12/21 04:09:07;;;;;;;17.20;12.05;;;-3.00;99.90;;;;;;4950274;29;20044;-68
2021/12/21 04:11:33;;;;;;;17.27;12.43;;;-3.00;99.90;;;;;;4950722;28;20043;-67
2021/12/21 04:14:00;;;;;;;18.55;12.80;;;-3.00;99.90;;;;;;4933967;29;20462;-66
2021/12/21 04:16:27;;;;;;;20.10;12.30;;;-3.00;99.90;;;;;;4949448;29;20054;-67
2021/12/21 04:18:54;;;;;;;20.15;12.70;;;-3.00;99.90;;;;;;4950707;28;20055;-68
2021/12/21 04:21:20;;;;;;;19.02;13.43;;;-3.10;99.90;;;;;;4949082;29;20058;-67
2021/12/21 04:23:46;;;;;;;20.08;12.30;;;-3.00;99.90;;;;;;4949712;29;20059;-68
2021/12/21 04:26:15;;;;;;;18.85;12.82;;;-3.10;99.90;;;;;;4966688;28;20058;-58
2021/12/21 04:28:43;;;;;;;17.50;12.75;;;-3.10;99.90;;;;;;4949033;28;20051;-58
2021/12/21 04:31:10;;;;;;;26.40;13.50;;;-3.10;99.90;;;;;;4951604;28;20047;-58
2021/12/21 04:33:38;;;;;;;18.27;14.07;;;-3.10;99.90;;;;;;4950987;28;20490;-59
2021/12/21 04:36:05;;;;;;;18.65;13.25;;;-3.10;99.90;;;;;;4933765;29;20043;-58
2021/12/21 04:38:35;;;;;;;22.42;14.70;;;-3.10;99.90;;;;;;4950389;28;20044;-59
2021/12/21 04:41:15;;;;;;;22.52;14.50;;;-3.10;99.90;;;;;;4949549;28;20048;-59
2021/12/21 04:43:42;;;;;;;21.23;14.50;;;-3.10;99.90;;;;;;4949680;28;20044;-58
2021/12/21 04:46:10;;;;;;;25.25;14.45;;;-3.10;99.90;;;;;;4949506;29;20055;-59
2021/12/21 04:48:38;;;;;;;18.42;13.70;;;-3.10;99.90;;;;;;4949526;28;20458;-59
2021/12/21 04:51:05;;;;;;;24.23;15.98;;;-3.10;99.90;;;;;;4931995;29;20043;-58
2021/12/21 04:53:31;;;;;;;25.45;15.63;;;-3.10;99.90;;;;;;4950649;28;20035;-59
2021/12/21 04:55:57;;;;;;;22.23;14.95;;;-3.10;99.90;;;;;;4950654;28;20098;-60
2021/12/21 04:58:24;;;;;;;21.73;15.07;;;-3.10;99.90;;;;;;4948239;29;20048;-59
2021/12/21 05:00:50;;;;;;;22.25;15.90;;;-3.10;99.90;;;;;;4949164;28;20446;-59
2021/12/21 05:03:16;;;;;;;22.02;14.93;;;-3.10;99.90;;;;;;4949234;29;20082;-59
2021/12/21 05:05:43;;;;;;;26.38;17.48;;;-3.10;99.90;;;;;;4950772;28;20480;-58
2021/12/21 05:08:11;;;;;;;20.38;14.73;;;-3.10;99.90;;;;;;4931835;29;21210;-58
2021/12/21 05:10:47;;;;;;;20.80;15.65;;;-3.00;99.90;;;;;;4916704;29;20039;-58
2021/12/21 05:13:15;;;;;;;21.85;15.68;;;-3.10;99.90;;;;;;4949895;28;20050;-58
2021/12/21 05:15:42;;;;;;;21.35;16.05;;;-3.10;99.90;;;;;;4949271;28;20059;-59
2021/12/21 05:18:10;;;;;;;21.10;14.05;;;-3.10;99.90;;;;;;4950411;28;20491;-58
2021/12/21 05:20:38;;;;;;;18.58;13.30;;;-3.10;99.90;;;;;;4917252;29;20082;-68
2021/12/21 05:23:04;;;;;;;19.23;14.57;;;-3.10;99.90;;;;;;4949143;29;20054;-68
2021/12/21 05:25:31;;;;;;;19.83;13.82;;;-3.10;99.90;;;;;;4948759;29;20584;-68
2021/12/21 05:27:58;;;;;;;21.33;14.85;;;-3.10;99.90;;;;;;4949437;28;20118;-68
2021/12/21 05:30:26;;;;;;;20.48;14.15;;;-3.20;99.90;;;;;;4949283;28;20043;-68
2021/12/21 05:32:53;;;;;;;19.45;14.13;;;-3.10;99.90;;;;;;4964996;28;20437;-68
2021/12/21 05:35:20;;;;;;;24.83;14.77;;;-3.20;99.90;;;;;;4947993;29;20078;-68
2021/12/21 05:37:48;;;;;;;17.38;13.52;;;-3.10;99.90;;;;;;4948575;29;20430;-68
2021/12/21 05:40:16;;;;;;;16.90;13.60;;;-3.20;99.90;;;;;;4930421;29;20081;-69
2021/12/21 05:42:45;;;;;;;17.67;12.25;;;-3.10;99.90;;;;;;4949012;28;20047;-68
2021/12/21 05:45:15;;;;;;;14.23;11.15;;;-3.20;99.90;;;;;;4949555;29;20087;-68
2021/12/21 05:47:41;;;;;;;14.98;11.70;;;-3.20;99.90;;;;;;4948864;28;20039;-68
2021/12/21 05:50:12;;;;;;;16.83;12.90;;;-3.20;99.90;;;;;;4949343;28;20055;-58
2021/12/21 05:52:39;;;;;;;18.63;11.48;;;-3.20;99.90;;;;;;4932179;29;20051;-58
2021/12/21 05:55:06;;;;;;;16.65;11.63;;;-3.30;99.90;;;;;;4948115;29;20059;-68
2021/12/21 05:57:33;;;;;;;14.50;11.50;;;-3.30;99.90;;;;;;4949474;28;20055;-59
2021/12/21 05:59:59;;;;;;;13.88;11.45;;;-3.30;99.90;;;;;;4928787;29;20062;-68
2021/12/21 06:02:26;;;;;;;19.58;10.85;;;-3.30;99.90;;;;;;4932119;29;20062;-68
2021/12/21 06:04:52;;;;;;;21.38;11.63;;;-3.40;99.90;;;;;;4947485;29;20055;-68
2021/12/21 06:07:18;;;;;;;14.32;10.02;;;-3.40;99.90;;;;;;4949007;28;20066;-68
2021/12/21 06:09:47;;;;;;;19.08;11.05;;;-3.40;99.90;;;;;;4932123;29;20051;-69
2021/12/21 06:12:55;;;;;;;17.80;12.27;;;-3.40;99.90;;;;;;4950831;28;20043;-68
2021/12/21 06:25:54;;;;;;;20.20;12.40;;;-3.30;99.90;;;;;;4953239;28;20051;-68
2021/12/21 06:28:21;;;;;;;18.77;12.80;;;-3.30;99.90;;;;;;4953116;28;20055;-58
2021/12/21 06:30:47;;;;;;;17.40;12.68;;;-3.40;99.90;;;;;;4950836;29;20047;-58
2021/12/21 06:33:14;;;;;;;16.92;11.50;;;-3.30;99.90;;;;;;4953536;28;20049;-58
2021/12/21 06:35:40;;;;;;;15.00;11.35;;;-3.40;99.90;;;;;;4951009;29;20127;-58
2021/12/21 06:38:07;;;;;;;14.98;11.40;;;-3.40;99.90;;;;;;4952818;28;20439;-58
2021/12/21 06:40:34;;;;;;;15.35;11.10;;;-3.40;99.90;;;;;;4950555;29;20055;-58
2021/12/21 06:43:02;;;;;;;17.95;11.02;;;-3.40;99.90;;;;;;4951647;28;20082;-58
2021/12/21 06:53:27;;;;;;;15.10;11.90;;;-3.40;99.90;;;;;;4965972;28;20483;-56
2021/12/21 06:55:53;;;;;;;22.15;11.90;;;-3.50;99.90;;;;;;4951158;28;20047;-57
2021/12/21 06:58:19;;;;;;;16.08;10.38;;;-3.40;99.90;;;;;;4949698;28;20043;-58
2021/12/21 07:00:46;;;;;;;11.75;9.30;;;-3.50;99.90;;;;;;4952122;29;20383;-58
2021/12/21 07:03:13;;;;;;;14.70;10.20;;;-3.50;99.90;;;;;;4952875;28;20066;-57
2021/12/21 07:05:40;;;;;;;14.13;10.45;;;-3.40;99.90;;;;;;4951370;29;20051;-58
2021/12/21 07:08:14;;;;;;;13.80;10.82;;;-3.50;99.90;;;;;;4935932;29;20384;-58
2021/12/21 07:10:42;;;;;;;14.90;10.60;;;-3.50;99.90;;;;;;4951733;29;20094;-58
2021/12/21 07:18:39;;;;;;;12.82;8.45;;;-3.50;99.90;;;;;;4951374;29;20122;-56
2021/12/21 07:21:05;;;;;;;14.05;9.23;;;-3.50;99.90;;;;;;4953435;28;20406;-66
2021/12/21 07:23:31;;;;;;;21.48;14.85;;;-3.50;99.90;;;;;;4951243;28;20522;-67
2021/12/21 07:25:57;;;;;;;9.20;7.65;;;-3.40;99.90;;;;;;4951864;29;20491;-67
2021/12/21 07:28:23;;;;;;;12.23;9.20;;;-3.60;99.90;;;;;;4951589;28;20050;-58
2021/12/21 07:30:49;;;;;;;13.23;9.27;;;-3.60;99.90;;;;;;4951605;28;20495;-58
2021/12/21 07:33:16;;;;;;;13.95;8.88;;;-3.60;99.90;;;;;;4951640;28;20050;-58
2021/12/21 07:35:43;;;;;;;12.77;9.05;;;-3.60;99.90;;;;;;4951568;29;20063;-58
2021/12/21 07:38:10;;;;;;;13.38;9.10;;;-3.60;99.90;;;;;;4952763;28;20046;-58
2021/12/21 07:40:38;;;;;;;12.32;9.48;;;-3.70;99.90;;;;;;4948892;28;20051;-52
2021/12/21 07:43:05;;;;;;;13.88;10.18;;;-3.70;99.90;;;;;;4950858;29;20047;-58
2021/12/21 07:45:31;;;;;;;17.27;10.68;;;-3.70;99.90;;;;;;4934870;29;20047;-58
2021/12/21 07:47:57;;;;;;;16.98;11.23;;;-3.60;99.90;;;;;;4951196;29;20542;-58
2021/12/21 07:50:24;;;;;;;17.17;10.57;;;-3.70;99.90;;;;;;4951952;28;20098;-59
2021/12/21 07:52:54;;;;;;;15.75;10.13;;;-3.70;99.90;;;;;;4952061;28;20143;-58
2021/12/21 07:55:21;;;;;;;15.25;9.95;;;-3.60;99.90;;;;;;4951908;28;20055;-58
2021/12/21 07:57:47;;;;;;;14.75;9.88;;;-3.60;99.90;;;;;;4950612;29;20544;-58
2021/12/21 08:00:14;;;;;;;13.55;9.70;;;-3.50;99.90;;;;;;4964820;28;20110;-58
2021/12/21 08:02:41;;;;;;;13.90;9.95;;;-3.50;99.90;;;;;;4934292;29;20656;-57
2021/12/21 08:05:09;;;;;;;15.38;10.23;;;-3.50;99.90;;;;;;4948400;29;20102;-66
2021/12/21 08:07:45;;;;;;;15.07;10.00;;;-3.50;99.90;;;;;;4945932;28;20483;-58
2021/12/21 08:10:27;;;;;;;13.00;9.82;;;-3.40;99.90;;;;;;4949843;28;20453;-58
2021/12/21 08:12:53;;;;;;;15.32;10.43;;;-3.40;99.90;;;;;;4949866;28;20051;-67
2021/12/21 08:15:20;;;;;;;16.00;9.70;;;-3.30;99.90;;;;;;4948884;29;20059;-67
2021/12/21 08:17:47;;;;;;;17.73;9.90;;;-3.20;99.90;;;;;;4945374;28;20143;-67
2021/12/21 08:20:13;;;;;;;12.85;9.38;;;-3.00;99.90;;;;;;4946316;29;20870;-60
2021/12/21 08:22:39;;;;;;;10.73;8.48;;;-2.90;99.90;;;;;;4944007;28;20118;-70
2021/12/21 08:25:06;;;;;;;14.38;8.75;;;-2.90;99.90;;;;;;4944450;29;20094;-70
2021/12/21 08:27:33;;;;;;;12.10;8.27;;;-2.70;99.90;;;;;;4943748;29;20168;-70
2021/12/21 08:29:59;;;;;;;10.30;7.70;;;-2.60;99.90;;;;;;4943049;29;20303;-69
2021/12/21 08:32:25;;;;;;;9.98;8.18;;;-2.50;99.90;;;;;;4927771;29;20055;-59
2021/12/21 08:34:51;;;;;;;11.13;8.85;;;-2.40;99.90;;;;;;4946733;28;20082;-59
2021/12/21 08:37:17;;;;;;;13.02;8.02;;;-2.20;99.90;;;;;;4947605;28;20137;-60
2021/12/21 08:39:43;;;;;;;11.35;7.28;;;-1.60;99.90;;;;;;4944181;29;20047;-59
2021/12/21 08:42:16;;;;;;;11.38;6.85;;;-0.90;99.90;;;;;;4927074;29;20039;-60
2021/12/21 08:44:45;;;;;;;11.88;7.00;;;-0.30;99.90;;;;;;4963967;28;20051;-70
2021/12/21 08:47:12;;;;;;;10.95;6.57;;;-0.20;99.90;;;;;;4930234;29;20050;-71
2021/12/21 08:49:39;;;;;;;9.77;6.93;;;0.00;99.90;;;;;;4940892;29;20073;-62
2021/12/21 08:52:05;;;;;;;9.15;6.43;;;0.30;99.90;;;;;;4946871;28;20516;-61
2021/12/21 08:54:32;;;;;;;11.57;6.70;;;0.70;99.90;;;;;;4946166;28;20384;-62
2021/12/21 08:56:58;;;;;;;10.02;5.97;;;0.90;99.90;;;;;;4943830;29;20066;-71
2021/12/21 08:59:24;;;;;;;8.75;6.32;;;1.20;99.90;;;;;;4946427;29;20063;-71
2021/12/21 09:01:53;;;;;;;11.05;6.25;;;1.40;99.90;;;;;;4944335;29;20422;-70
2021/12/21 09:04:21;;;;;;;9.60;6.40;;;1.40;99.90;;;;;;4928632;29;20522;-71
2021/12/21 09:06:48;;;;;;;8.07;5.78;;;1.40;99.90;;;;;;4936456;29;20051;-70
2021/12/21 09:09:14;;;;;;;10.07;6.45;;;1.40;99.90;;;;;;4925610;29;20047;-71
2021/12/21 09:11:40;;;;;;;8.43;6.18;;;1.20;99.90;;;;;;4940524;29;20377;-70
2021/12/21 09:14:07;;;;;;;9.70;6.55;;;1.00;99.90;;;;;;4936197;29;20044;-70
2021/12/21 09:16:33;;;;;;;13.63;7.97;;;0.90;99.90;;;;;;4914367;29;20051;-70
2021/12/21 09:19:01;;;;;;;11.48;7.63;;;0.80;99.90;;;;;;4934076;29;20578;-69
2021/12/21 09:21:27;;;;;;;12.88;8.35;;;0.70;99.90;;;;;;4937066;29;20055;-69
2021/12/21 09:23:54;;;;;;;10.82;6.93;;;0.90;99.90;;;;;;4930800;29;20058;-69
2021/12/21 09:26:20;;;;;;;12.50;8.35;;;0.90;99.90;;;;;;4930900;29;20055;-69
2021/12/21 09:28:46;;;;;;;13.43;8.50;;;0.80;99.90;;;;;;4949860;28;20502;-69
2021/12/21 09:31:12;;;;;;;12.00;8.45;;;0.80;99.90;;;;;;4925893;29;20093;-69
2021/12/21 09:33:41;;;;;;;14.75;10.25;;;0.90;99.90;;;;;;4952977;28;20102;-69
2021/12/21 09:36:07;;;;;;;11.38;9.45;;;0.90;99.90;;;;;;4933236;29;20040;-68
2021/12/21 09:38:34;;;;;;;14.63;11.35;;;1.10;99.90;;;;;;4943389;29;20650;-69
2021/12/21 09:41:00;;;;;;;17.65;13.05;;;1.30;99.90;;;;;;4937490;29;20439;-69
2021/12/21 09:43:27;;;;;;;16.77;12.48;;;1.30;99.90;;;;;;4914186;29;20515;-68
2021/12/21 09:45:53;;;;;;;17.13;13.10;;;1.30;99.90;;;;;;4941446;29;20047;-68
2021/12/21 09:48:20;;;;;;;20.40;14.90;;;1.40;99.90;;;;;;4943098;29;20541;-68
2021/12/21 09:50:46;;;;;;;19.33;14.07;;;1.30;99.90;;;;;;4970851;28;20047;-67
2021/12/21 09:53:12;;;;;;;21.92;15.77;;;1.20;99.90;;;;;;4956231;28;20053;-68
2021/12/21 09:55:38;;;;;;;18.83;14.82;;;1.10;99.90;;;;;;4916715;29;20415;-68
2021/12/21 09:58:05;;;;;;;19.35;15.13;;;1.20;99.90;;;;;;4953633;29;20610;-68
2021/12/21 10:00:33;;;;;;;22.67;15.65;;;1.50;99.90;;;;;;4942204;29;20069;-68
2021/12/21 10:03:05;;;;;;;20.20;15.27;;;1.80;99.90;;;;;;4955449;28;20275;-68
2021/12/21 10:05:37;;;;;;;18.70;13.25;;;2.20;99.90;;;;;;4887777;29;20047;-68
2021/12/21 10:08:08;;;;;;;18.48;14.38;;;2.20;99.90;;;;;;4943010;29;20051;-68
2021/12/21 10:10:40;;;;;;;22.27;15.63;;;2.30;99.90;;;;;;4970524;28;20055;-61
2021/12/21 10:13:17;;;;;;;21.45;16.83;;;2.30;99.90;;;;;;4938701;29;20119;-61
2021/12/21 10:15:46;;;;;;;24.20;18.27;;;2.20;99.90;;;;;;4946482;29;20055;-65
2021/12/21 10:18:13;;;;;;;22.95;17.52;;;2.40;99.90;;;;;;4942895;29;20070;-69
2021/12/21 10:20:44;;;;;;;21.40;17.63;;;2.50;99.90;;;;;;4936049;29;20131;-69
2021/12/21 10:23:28;;;;;;;22.35;16.90;;;2.70;99.90;;;;;;4936772;29;20055;-69
2021/12/21 10:26:06;;;;;;;22.52;17.13;;;3.40;99.90;;;;;;4953613;28;20047;-69
2021/12/21 10:28:36;;;;;;;24.80;17.10;;;3.80;99.90;;;;;;4951564;29;20095;-70
2021/12/21 10:31:07;;;;;;;23.85;16.48;;;3.90;99.90;;;;;;4936307;29;20056;-69
2021/12/21 10:33:36;;;;;;;18.40;15.13;;;4.10;99.90;;;;;;4922633;29;20043;-69
2021/12/21 10:36:05;;;;;;;19.02;15.63;;;4.10;99.90;;;;;;4961119;28;20043;-69
2021/12/21 10:38:33;;;;;;;20.98;15.85;;;4.10;99.90;;;;;;4936417;29;20527;-69
2021/12/21 10:41:32;;;;;;;17.80;14.82;;;4.10;99.90;;;;;;4926516;29;20047;-61
2021/12/21 10:44:18;;;;;;;19.98;15.25;;;3.90;99.90;;;;;;4943639;28;20410;-61
2021/12/21 10:46:47;;;;;;;18.48;14.85;;;4.00;99.90;;;;;;4943668;28;20537;-61
2021/12/21 10:49:18;;;;;;;19.80;14.98;;;3.90;99.90;;;;;;4935980;28;20049;-60
2021/12/21 10:51:52;;;;;;;18.03;14.50;;;3.90;99.90;;;;;;4970581;28;20419;-61
2021/12/21 10:54:43;;;;;;;17.85;14.30;;;4.20;99.90;;;;;;4943641;28;20812;-61
2021/12/21 10:57:23;;;;;;;18.90;14.48;;;4.50;99.90;;;;;;4939357;29;20063;-61
2021/12/21 10:59:56;;;;;;;20.00;14.70;;;4.90;99.90;;;;;;4948036;29;20046;-61
2021/12/21 11:02:28;;;;;;;18.90;13.73;;;5.20;99.90;;;;;;4952250;28;20203;-61
2021/12/21 11:05:06;;;;;;;18.23;13.77;;;5.60;99.90;;;;;;4925112;29;20075;-61
2021/12/21 11:07:46;;;;;;;20.38;14.73;;;6.20;99.90;;;;;;4931589;29;20451;-61
2021/12/21 11:10:25;;;;;;;16.10;13.43;;;6.20;99.90;;;;;;4947796;28;20097;-61
2021/12/21 11:13:04;;;;;;;18.55;14.18;;;6.10;99.90;;;;;;4934775;29;20509;-60
2021/12/21 11:15:43;;;;;;;20.55;13.77;;;6.30;99.90;;;;;;4931305;29;20590;-60
2021/12/21 11:18:16;;;;;;;17.23;13.95;;;6.20;99.90;;;;;;4964790;28;20047;-60
2021/12/21 11:20:45;;;;;;;17.98;13.50;;;6.00;99.90;;;;;;4916077;29;20083;-60
2021/12/21 11:23:13;;;;;;;19.17;13.15;;;5.90;99.90;;;;;;4948616;28;20086;-60
2021/12/21 11:25:42;;;;;;;16.80;13.75;;;5.80;99.90;;;;;;4931570;29;20050;-60
2021/12/21 11:28:11;;;;;;;21.30;13.82;;;5.80;99.90;;;;;;4949760;28;20054;-58
2021/12/21 11:30:38;;;;;;;20.35;14.50;;;5.70;99.90;;;;;;4943654;28;20575;-58
2021/12/21 11:33:10;;;;;;;17.25;14.68;;;5.40;99.90;;;;;;4938903;29;20051;-59
2021/12/21 11:38:06;;;;;;;20.05;13.35;;;5.40;99.90;;;;;;4949188;29;20459;-59
2021/12/21 11:40:36;;;;;;;17.38;14.15;;;5.50;99.90;;;;;;4941837;28;20443;-64
2021/12/21 11:43:14;;;;;;;15.70;13.80;;;5.50;99.90;;;;;;4934179;29;20126;-65
2021/12/21 11:45:58;;;;;;;18.98;14.80;;;5.60;99.90;;;;;;4942949;29;20510;-64
2021/12/21 11:48:41;;;;;;;16.17;14.10;;;5.80;99.90;;;;;;4920224;29;20102;-65
2021/12/21 11:51:11;;;;;;;21.95;14.73;;;6.40;99.90;;;;;;4916632;29;20090;-65
2021/12/21 11:53:37;;;;;;;16.15;13.48;;;6.40;99.90;;;;;;4943486;29;20372;-64
2021/12/21 11:56:06;;;;;;;17.42;13.15;;;6.50;99.90;;;;;;4908624;29;20051;-65
2021/12/21 11:58:37;;;;;;;20.25;14.57;;;6.70;99.90;;;;;;4948804;28;20050;-65
2021/12/21 12:01:16;;;;;;;17.50;14.82;;;6.70;99.90;;;;;;4942120;29;20055;-64
2021/12/21 12:03:58;;;;;;;18.25;14.82;;;6.70;99.90;;;;;;4936684;29;20075;-61
2021/12/21 12:06:26;;;;;;;18.25;14.60;;;6.60;99.90;;;;;;4948259;28;20054;-63
2021/12/21 12:08:59;;;;;;;18.48;14.65;;;7.00;99.90;;;;;;4944852;29;20083;-62
2021/12/21 12:11:35;;;;;;;18.77;13.73;;;7.20;99.90;;;;;;4941445;29;20051;-62
2021/12/21 12:14:11;;;;;;;23.20;13.57;;;7.40;99.90;;;;;;4916691;29;20069;-61
2021/12/21 12:16:49;;;;;;;17.92;14.00;;;7.70;99.90;;;;;;4939105;28;20051;-61
2021/12/21 12:19:17;;;;;;;19.35;14.23;;;7.90;99.90;;;;;;4944299;29;20043;-62
2021/12/21 12:22:00;;;;;;;18.20;13.68;;;8.00;99.90;;;;;;4951618;29;20098;-60
2021/12/21 12:24:34;;;;;;;16.33;13.25;;;8.20;99.90;;;;;;4936867;29;20063;-59
2021/12/21 12:27:10;;;;;;;18.55;13.45;;;8.60;99.90;;;;;;4948045;29;20087;-59
2021/12/21 12:30:10;;;;;;;16.70;13.57;;;8.60;99.90;;;;;;4948962;29;20079;-59
2021/12/21 12:32:46;;;;;;;15.25;13.00;;;8.70;99.90;;;;;;4949702;29;20086;-59
2021/12/21 12:35:19;;;;;;;16.08;12.88;;;9.00;99.90;;;;;;4949423;28;20051;-59
2021/12/21 12:37:57;;;;;;;16.95;13.00;;;8.90;99.90;;;;;;4948806;29;20055;-58
2021/12/21 12:40:35;;;;;;;16.75;12.95;;;8.50;99.90;;;;;;4939938;28;20503;-58
2021/12/21 12:43:05;;;;;;;18.58;13.75;;;8.10;99.90;;;;;;4940623;28;20585;-58
2021/12/21 12:45:45;;;;;;;17.77;13.25;;;7.90;99.90;;;;;;4930999;29;20051;-58
2021/12/21 12:48:29;;;;;;;18.42;12.05;;;7.80;99.90;;;;;;4942918;28;20082;-57
2021/12/21 12:50:57;;;;;;;16.92;12.82;;;7.60;99.90;;;;;;4941447;28;20507;-57
2021/12/21 12:53:47;;;;;;;19.20;13.10;;;7.40;99.90;;;;;;4933285;29;20054;-60
2021/12/21 12:56:18;;;;;;;16.85;13.23;;;7.20;99.90;;;;;;4947644;28;20126;-58
2021/12/21 12:59:00;;;;;;;14.30;12.35;;;7.40;99.90;;;;;;4945676;29;20114;-58
2021/12/21 13:01:29;;;;;;;16.95;12.95;;;7.70;99.90;;;;;;4963928;28;20050;-58
2021/12/21 13:04:01;;;;;;;14.32;12.82;;;8.30;99.90;;;;;;4939561;29;20571;-58
2021/12/21 13:06:30;;;;;;;19.40;12.85;;;9.20;99.90;;;;;;4922374;29;20055;-58
2021/12/21 13:08:57;;;;;;;17.25;11.85;;;9.80;99.90;;;;;;4964503;28;20043;-59
2021/12/21 13:11:26;;;;;;;15.90;11.68;;;10.10;99.90;;;;;;4940571;28;20380;-58
2021/12/21 13:13:57;;;;;;;16.70;11.82;;;10.20;99.90;;;;;;4939769;28;20047;-58
2021/12/21 13:16:35;;;;;;;16.27;11.00;;;9.80;99.90;;;;;;4934241;29;20059;-58
2021/12/21 13:19:04;;;;;;;17.02;11.90;;;9.80;99.90;;;;;;4958310;28;20047;-58
2021/12/21 13:21:35;;;;;;;15.65;11.32;;;9.90;99.90;;;;;;4940301;28;20491;-58
2021/12/21 13:24:09;;;;;;;17.73;12.18;;;10.30;99.90;;;;;;4942824;29;20419;-59
2021/12/21 13:26:38;;;;;;;14.45;11.68;;;10.70;95.80;;;;;;4929380;29;20086;-58
2021/12/21 13:29:09;;;;;;;13.27;11.45;;;10.90;99.90;;;;;;4931534;29;20048;-58
2021/12/21 13:31:35;;;;;;;15.82;11.15;;;11.20;99.90;;;;;;4953971;28;20047;-58
2021/12/21 13:34:02;;;;;;;16.42;12.40;;;11.50;99.90;;;;;;4930351;29;20051;-59
2021/12/21 13:36:38;;;;;;;19.38;13.10;;;11.70;99.40;;;;;;4939801;28;20549;-58
2021/12/21 13:39:19;;;;;;;17.70;11.75;;;11.80;91.50;;;;;;4950909;28;20228;-58
2021/12/21 13:42:04;;;;;;;18.23;11.27;;;12.20;89.20;;;;;;4949467;28;20414;-55
2021/12/21 13:44:36;;;;;;;15.43;10.73;;;12.50;92.40;;;;;;4948979;29;20443;-58
2021/12/21 13:47:14;;;;;;;12.73;10.00;;;12.60;91.40;;;;;;4950462;29;20058;-59
2021/12/21 13:50:12;;;;;;;15.45;9.93;;;12.50;89.70;;;;;;4945837;28;20549;-58
2021/12/21 13:52:51;;;;;;;12.40;10.18;;;12.50;74.40;;;;;;4946248;29;20040;-58
2021/12/21 13:55:26;;;;;;;14.63;10.75;;;12.40;85.50;;;;;;4946269;29;20047;-58
2021/12/21 13:57:56;;;;;;;17.13;11.00;;;12.50;80.70;;;;;;4956792;28;20050;-59
2021/12/21 14:00:28;;;;;;;13.80;10.30;;;12.50;82.50;;;;;;4945798;28;20134;-59